Time;durP1;ratioP1;P1;durP2;ratioP2;P2;SDS_P1;SDS_P2;PMS_P1;PMS_P2;Temp;Humidity;BMP_temperature;BMP_pressure;BME280_temperature;BME280_humidity;BME280_pressure;Samples;Min_cycle;Max_cycle;Signal;HPM_P1;HPM_P2
2021/11/15 00:21:00;;;;;;;41.27;22.87;;;8.70;99.90;;;;;;6104351;23;20622;-69
2021/11/15 00:23:28;;;;;;;47.07;23.43;;;8.90;99.90;;;;;;6098779;23;20622;-69
2021/11/15 00:25:59;;;;;;;46.40;24.37;;;8.80;99.90;;;;;;6083487;23;20597;-68
2021/11/15 00:28:24;;;;;;;44.37;24.80;;;8.80;99.90;;;;;;6085504;23;20539;-68
2021/11/15 00:31:13;;;;;;;40.67;22.30;;;8.80;99.90;;;;;;6085490;23;21167;-68
2021/11/15 00:33:45;;;;;;;45.93;23.50;;;8.80;99.90;;;;;;6085838;23;20210;-69
2021/11/15 00:36:36;;;;;;;42.43;23.33;;;8.80;99.90;;;;;;6084974;23;20496;-68
2021/11/15 00:39:04;;;;;;;50.00;24.23;;;8.80;99.90;;;;;;6086374;23;20524;-68
2021/11/15 00:41:30;;;;;;;42.40;23.07;;;8.80;99.90;;;;;;6055857;23;20582;-68
2021/11/15 00:43:55;;;;;;;50.47;26.17;;;8.90;99.90;;;;;;6086400;23;20579;-68
2021/11/15 00:46:53;;;;;;;;;;;;;;;;;;;;;
2021/11/15 00:49:28;;;;;;;48.03;23.73;;;8.90;99.90;;;;;;6082043;23;20139;-68
2021/11/15 00:51:58;;;;;;;41.27;24.00;;;8.90;99.90;;;;;;6085127;23;21132;-68
2021/11/15 00:54:49;;;;;;;50.90;25.23;;;8.90;99.90;;;;;;6085717;23;20555;-68
2021/11/15 00:57:21;;;;;;;44.63;24.30;;;8.90;99.90;;;;;;6086679;23;20591;-68
2021/11/15 00:59:49;;;;;;;45.90;24.77;;;8.80;99.90;;;;;;6085892;23;20996;-68
2021/11/15 01:02:46;;;;;;;;;;;;;;;;;;;;;
2021/11/15 01:05:30;;;;;;;50.10;25.67;;;8.80;99.90;;;;;;6085213;23;20665;-69
2021/11/15 01:08:04;;;;;;;43.30;23.90;;;8.90;99.90;;;;;;6089048;23;20518;-68
2021/11/15 01:10:32;;;;;;;43.70;23.20;;;8.70;99.90;;;;;;6090722;23;20586;-67
2021/11/15 01:13:00;;;;;;;45.30;23.43;;;8.60;99.90;;;;;;6088665;23;20762;-69
2021/11/15 01:15:28;;;;;;;54.20;24.33;;;8.60;99.90;;;;;;6062268;23;21124;-69
2021/11/15 01:17:56;;;;;;;45.13;22.53;;;8.70;99.90;;;;;;6088127;23;20628;-69
2021/11/15 01:20:34;;;;;;;46.60;23.43;;;8.70;99.90;;;;;;6089009;23;20562;-68
2021/11/15 01:23:03;;;;;;;48.80;23.60;;;8.70;99.90;;;;;;6086784;23;20717;-68
2021/11/15 01:25:39;;;;;;;48.10;24.50;;;8.70;99.90;;;;;;6088978;23;20629;-67
2021/11/15 01:28:10;;;;;;;39.47;23.30;;;8.80;99.90;;;;;;6087684;23;20846;-68
2021/11/15 01:30:42;;;;;;;44.80;23.20;;;8.80;99.90;;;;;;6084836;23;20586;-68
2021/11/15 01:33:13;;;;;;;46.50;23.40;;;8.80;99.90;;;;;;6087470;23;20607;-69
2021/11/15 01:35:55;;;;;;;45.93;22.80;;;8.80;99.90;;;;;;6087707;23;20507;-68
2021/11/15 01:38:33;;;;;;;48.90;23.57;;;8.80;99.90;;;;;;6089863;23;20641;-68
2021/11/15 01:41:08;;;;;;;48.30;23.03;;;8.80;99.90;;;;;;6088294;23;20558;-69
2021/11/15 01:43:44;;;;;;;52.20;24.30;;;8.80;99.90;;;;;;6087119;23;20567;-68
2021/11/15 01:46:10;;;;;;;46.17;24.03;;;8.80;99.90;;;;;;6089549;23;20620;-68
2021/11/15 01:48:46;;;;;;;48.90;24.10;;;8.80;99.90;;;;;;6062936;23;20654;-68
2021/11/15 01:51:36;;;;;;;50.57;25.93;;;8.80;99.90;;;;;;6086724;23;20644;-68
2021/11/15 01:54:19;;;;;;;45.37;24.17;;;8.90;99.90;;;;;;6089458;23;21176;-69
2021/11/15 01:56:58;;;;;;;44.10;22.30;;;8.90;99.90;;;;;;6087192;23;20924;-68
2021/11/15 01:59:24;;;;;;;46.80;23.80;;;8.90;99.90;;;;;;6088149;23;20518;-68
2021/11/15 02:01:52;;;;;;;43.23;21.40;;;8.90;99.90;;;;;;6087790;23;20619;-68
2021/11/15 02:04:17;;;;;;;45.83;23.70;;;8.80;99.90;;;;;;6060668;23;20430;-68
2021/11/15 02:06:51;;;;;;;41.80;21.90;;;8.80;99.90;;;;;;6088638;23;20606;-68
2021/11/15 02:09:29;;;;;;;42.00;22.37;;;8.80;99.90;;;;;;6087110;23;20146;-68
2021/11/15 02:12:14;;;;;;;42.53;22.70;;;8.80;99.90;;;;;;6086359;23;20610;-68
2021/11/15 02:14:44;;;;;;;41.00;21.57;;;8.90;99.90;;;;;;6087838;23;20558;-68
2021/11/15 02:17:15;;;;;;;44.53;23.27;;;8.80;99.90;;;;;;6088847;23;20555;-68
2021/11/15 02:19:57;;;;;;;44.13;22.70;;;8.80;99.90;;;;;;6063431;23;20691;-69
2021/11/15 02:22:42;;;;;;;46.97;24.43;;;8.90;99.90;;;;;;6087507;23;20591;-68
2021/11/15 02:25:12;;;;;;;44.23;24.47;;;8.90;99.90;;;;;;6089053;23;20530;-67
2021/11/15 02:27:48;;;;;;;45.13;24.83;;;8.90;99.90;;;;;;6088867;23;20546;-68
2021/11/15 02:30:33;;;;;;;50.60;24.50;;;8.90;99.90;;;;;;6087305;23;20510;-68
2021/11/15 02:33:01;;;;;;;45.27;23.00;;;8.90;99.90;;;;;;6087459;23;20939;-68
2021/11/15 02:35:34;;;;;;;53.23;24.03;;;8.90;99.90;;;;;;6090262;23;20830;-68
2021/11/15 02:38:11;;;;;;;51.03;26.70;;;8.80;99.90;;;;;;6090506;23;20557;-68
2021/11/15 02:40:56;;;;;;;45.77;24.30;;;8.80;99.90;;;;;;6064053;23;20550;-68
2021/11/15 02:43:38;;;;;;;;;;;;;;;;;;;;;
2021/11/15 02:46:17;;;;;;;54.83;25.93;;;8.80;99.90;;;;;;6090106;23;20813;-69
2021/11/15 02:48:53;;;;;;;46.40;23.90;;;8.80;99.90;;;;;;6090237;23;20566;-68
2021/11/15 02:51:52;;;;;;;46.90;24.33;;;8.80;99.90;;;;;;6087360;23;20673;-69
2021/11/15 02:54:49;;;;;;;48.60;24.90;;;8.80;99.90;;;;;;6080616;23;20602;-68
2021/11/15 02:57:26;;;;;;;46.97;24.60;;;8.70;99.90;;;;;;6064308;23;20638;-68
2021/11/15 02:59:57;;;;;;;52.13;24.87;;;8.70;99.90;;;;;;6090104;23;20507;-69
2021/11/15 03:02:32;;;;;;;53.77;26.33;;;8.70;99.90;;;;;;6088674;23;20753;-68
2021/11/15 03:05:20;;;;;;;45.80;24.83;;;8.80;99.90;;;;;;6089282;23;20530;-68
2021/11/15 03:07:52;;;;;;;46.93;24.77;;;8.80;99.90;;;;;;6090875;23;20998;-68
2021/11/15 03:10:27;;;;;;;51.50;26.93;;;8.80;99.90;;;;;;6090618;23;21090;-69
2021/11/15 03:13:03;;;;;;;51.80;24.40;;;8.80;99.90;;;;;;6088611;23;20622;-68
2021/11/15 03:15:41;;;;;;;52.90;25.03;;;8.80;99.90;;;;;;6089868;23;20574;-69
2021/11/15 03:18:14;;;;;;;52.20;25.03;;;8.80;99.90;;;;;;6090511;23;20518;-68
2021/11/15 03:20:57;;;;;;;52.63;25.27;;;8.80;99.90;;;;;;6088749;23;20494;-69
2021/11/15 03:23:28;;;;;;;48.60;26.37;;;8.80;99.90;;;;;;6094909;23;21000;-68
2021/11/15 03:25:57;;;;;;;53.47;26.20;;;8.80;99.90;;;;;;6090319;23;21045;-68
2021/11/15 03:28:40;;;;;;;50.03;24.60;;;8.80;99.90;;;;;;6089597;23;20554;-68
2021/11/15 03:31:21;;;;;;;50.70;26.23;;;8.80;99.90;;;;;;6088802;23;20582;-67
2021/11/15 03:33:51;;;;;;;51.20;26.03;;;8.80;99.90;;;;;;6064392;23;20601;-69
2021/11/15 03:36:27;;;;;;;50.43;25.83;;;8.80;99.90;;;;;;6089310;23;20563;-68
2021/11/15 03:39:21;;;;;;;46.97;25.00;;;8.80;99.90;;;;;;6090441;23;20906;-68
2021/11/15 03:42:07;;;;;;;50.90;25.17;;;8.80;99.90;;;;;;6062648;23;20685;-69
2021/11/15 03:44:36;;;;;;;49.60;25.50;;;8.80;99.90;;;;;;6059473;23;20713;-68
2021/11/15 03:47:12;;;;;;;55.93;27.50;;;8.80;99.90;;;;;;6090176;23;20660;-68
2021/11/15 03:49:59;;;;;;;47.60;25.43;;;8.80;99.90;;;;;;6089955;23;20499;-68
2021/11/15 03:52:34;;;;;;;50.90;26.60;;;8.70;99.90;;;;;;6086147;23;20586;-68
2021/11/15 03:54:59;;;;;;;53.57;25.60;;;8.70;99.90;;;;;;6090266;23;20559;-68
2021/11/15 03:57:37;;;;;;;48.43;25.17;;;8.70;99.90;;;;;;6090406;23;20547;-68
2021/11/15 04:00:13;;;;;;;48.07;22.50;;;8.70;99.90;;;;;;6089886;23;20177;-67
2021/11/15 04:02:39;;;;;;;51.53;22.17;;;8.70;99.90;;;;;;6088176;23;20622;-67
2021/11/15 04:05:22;;;;;;;50.47;23.23;;;8.70;99.90;;;;;;6090145;23;20872;-66
2021/11/15 04:07:53;;;;;;;51.83;22.97;;;8.70;99.90;;;;;;6089896;23;20554;-69
2021/11/15 04:10:42;;;;;;;45.60;22.40;;;8.70;99.90;;;;;;6064648;23;20561;-67
2021/11/15 04:13:18;;;;;;;43.73;22.23;;;8.70;99.90;;;;;;6088143;23;20618;-66
2021/11/15 04:15:46;;;;;;;43.77;22.57;;;8.70;99.90;;;;;;6063973;23;20578;-68
2021/11/15 04:18:16;;;;;;;52.00;23.50;;;8.70;99.90;;;;;;6090356;23;20589;-68
2021/11/15 04:20:43;;;;;;;51.90;23.73;;;8.70;99.90;;;;;;6089858;23;21048;-67
2021/11/15 04:26:05;;;;;;;49.43;22.90;;;8.60;99.90;;;;;;6089913;23;20611;-67
2021/11/15 04:28:33;;;;;;;140.37;64.53;;;8.50;99.90;;;;;;6089130;23;20561;-67
2021/11/15 04:31:04;;;;;;;187.03;71.93;;;8.50;99.90;;;;;;6090886;23;20547;-66
2021/11/15 04:33:41;;;;;;;218.20;80.13;;;8.30;99.90;;;;;;6090255;23;20622;-66
2021/11/15 04:36:20;;;;;;;196.97;74.17;;;8.30;99.90;;;;;;6092335;23;20641;-66
2021/11/15 04:38:48;;;;;;;324.13;146.00;;;8.30;99.90;;;;;;6088744;23;24452;-67
2021/11/15 04:41:14;;;;;;;341.05;186.55;;;8.40;99.90;;;;;;6086623;23;24373;-65
2021/11/15 04:43:39;;;;;;;369.63;251.93;;;8.20;99.90;;;;;;6088771;23;20705;-67
2021/11/15 04:46:13;;;;;;;392.60;307.63;;;8.30;99.90;;;;;;6088194;23;20988;-67
2021/11/15 04:48:50;;;;;;;435.33;388.33;;;8.40;99.90;;;;;;6087836;23;24646;-66
2021/11/15 04:51:17;;;;;;;410.48;349.25;;;8.50;99.90;;;;;;6086692;23;24425;-66
2021/11/15 04:54:08;;;;;;;437.15;328.10;;;8.50;99.90;;;;;;6086516;23;24437;-67
2021/11/15 04:56:39;;;;;;;393.23;191.50;;;8.60;99.90;;;;;;6089251;23;20147;-65
2021/11/15 04:59:18;;;;;;;291.25;265.73;;;8.70;99.90;;;;;;6060881;23;24436;-66
2021/11/15 05:01:51;;;;;;;333.40;178.97;;;8.70;99.90;;;;;;6088462;23;20285;-67
2021/11/15 05:04:29;;;;;;;325.73;137.57;;;8.70;99.90;;;;;;6062723;23;20611;-66
2021/11/15 05:07:00;;;;;;;404.60;244.35;;;8.70;99.90;;;;;;6088063;23;24744;-66
2021/11/15 05:09:28;;;;;;;412.67;319.02;;;8.60;99.90;;;;;;6087382;23;24445;-67
2021/11/15 05:12:05;;;;;;;353.03;136.43;;;8.70;99.90;;;;;;6089638;23;20372;-67
2021/11/15 05:14:38;;;;;;;405.98;301.23;;;8.70;99.90;;;;;;6087965;23;25026;-67
2021/11/15 05:17:14;;;;;;;45.40;24.98;;;8.70;99.90;;;;;;6087963;23;24345;-67
2021/11/15 05:19:49;;;;;;;368.77;162.73;;;8.80;99.90;;;;;;6089581;23;20197;-67
2021/11/15 05:22:15;;;;;;;;;;;8.60;99.90;;;;;;6087122;23;24385;-66
2021/11/15 05:24:48;;;;;;;;;;;8.60;99.90;;;;;;6103962;23;20661;-66
2021/11/15 05:27:29;;;;;;;321.10;169.65;;;8.60;99.90;;;;;;6116804;23;20236;-67
2021/11/15 05:30:07;;;;;;;;;;;8.70;99.90;;;;;;6115446;23;20672;-67
2021/11/15 05:32:45;;;;;;;;;;;8.70;99.90;;;;;;6105290;23;25117;-67
2021/11/15 05:35:18;;;;;;;;;;;8.70;99.90;;;;;;6113271;23;25091;-66
2021/11/15 05:37:49;;;;;;;;;;;8.80;99.90;;;;;;6119123;23;20464;-67
2021/11/15 05:40:22;;;;;;;;;;;8.60;99.90;;;;;;6116633;23;25085;-67
2021/11/15 05:42:55;;;;;;;;;;;8.50;99.90;;;;;;6119555;23;25052;-66
2021/11/15 05:45:43;;;;;;;;;;;8.60;99.90;;;;;;6119188;23;25048;-67
2021/11/15 05:48:13;;;;;;;;;;;8.60;99.90;;;;;;6119457;23;25083;-66
2021/11/15 05:50:39;;;;;;;;;;;8.60;99.90;;;;;;6118284;23;19901;-67
2021/11/15 05:53:07;;;;;;;;;;;8.60;99.90;;;;;;6115299;23;19941;-66
2021/11/15 05:55:34;;;;;;;;;;;8.60;99.90;;;;;;6117725;23;24046;-68
2021/11/15 05:58:02;;;;;;;;;;;8.70;99.90;;;;;;6119274;23;24052;-68
2021/11/15 06:00:30;;;;;;;;;;;8.70;99.90;;;;;;6119225;23;24088;-67
2021/11/15 06:02:56;;;;;;;;;;;8.60;99.90;;;;;;6140209;23;19913;-67
2021/11/15 06:05:25;;;;;;;;;;;8.60;99.90;;;;;;6117909;23;24081;-65
2021/11/15 06:08:20;;;;;;;;;;;;;;;;;;;;;
2021/11/15 06:10:46;;;;;;;;;;;8.70;99.90;;;;;;6118218;23;25076;-67
2021/11/15 06:13:12;;;;;;;;;;;8.70;99.90;;;;;;6117978;23;25123;-66
2021/11/15 06:18:43;;;;;;;;;;;8.70;99.90;;;;;;6113680;23;25041;-67
2021/11/15 06:21:19;;;;;;;;;;;;;;;;;;;;;
2021/11/15 06:23:50;;;;;;;;;;;8.80;99.90;;;;;;6105701;23;19919;-67
2021/11/15 06:26:16;;;;;;;;;;;8.60;99.90;;;;;;6060813;23;20226;-66
2021/11/15 06:28:47;;;;;;;;;;;8.60;99.90;;;;;;6083999;23;19902;-67
2021/11/15 06:31:20;;;;;;;;;;;8.60;99.90;;;;;;6085976;23;20367;-67
2021/11/15 06:33:52;;;;;;;;;;;8.70;99.90;;;;;;6087068;23;24657;-66
2021/11/15 06:36:22;;;;;;;;;;;8.70;99.90;;;;;;6085261;23;19905;-67
2021/11/15 06:38:52;;;;;;;;;;;8.80;99.90;;;;;;6084963;23;20569;-67
2021/11/15 06:41:18;;;;;;;;;;;8.80;99.90;;;;;;6083552;23;19901;-67
2021/11/15 06:43:43;;;;;;;;;;;8.80;99.90;;;;;;6087315;23;19902;-67
2021/11/15 06:46:09;;;;;;;;;;;8.90;99.90;;;;;;6086812;23;20382;-65
2021/11/15 06:48:41;;;;;;;;;;;8.80;99.90;;;;;;6085542;23;20674;-66
2021/11/15 06:51:07;;;;;;;;;;;8.80;99.90;;;;;;6086157;23;20793;-66
2021/11/15 06:53:32;;;;;;;;;;;8.90;99.90;;;;;;6059731;23;20693;-66
2021/11/15 06:55:59;;;;;;;;;;;8.90;99.90;;;;;;6083025;23;20695;-66
2021/11/15 06:58:37;;;;;;;;;;;8.90;99.90;;;;;;6061516;23;20367;-67
2021/11/15 07:01:03;;;;;;;;;;;8.80;99.90;;;;;;6082999;23;20258;-67
2021/11/15 07:03:47;;;;;;;;;;;8.80;99.90;;;;;;6084706;23;21255;-65
2021/11/15 07:06:15;;;;;;;;;;;8.90;99.90;;;;;;6086249;23;19935;-67
2021/11/15 07:08:41;;;;;;;;;;;8.80;99.90;;;;;;6086409;23;19901;-67
2021/11/15 07:11:06;;;;;;;;;;;8.90;99.90;;;;;;6082079;23;19911;-66
2021/11/15 07:13:32;;;;;;;;;;;8.90;99.90;;;;;;6084644;23;19902;-66
2021/11/15 07:16:03;;;;;;;;;;;8.80;99.90;;;;;;6088597;23;19905;-68
2021/11/15 07:18:35;;;;;;;;;;;8.80;99.90;;;;;;6087008;23;19956;-67
2021/11/15 07:21:01;;;;;;;;;;;8.70;99.90;;;;;;6059102;23;20195;-67
2021/11/15 07:23:29;;;;;;;46.00;38.80;;;8.80;99.90;;;;;;6087773;23;19980;-67
2021/11/15 07:25:58;;;;;;;;;;;8.80;99.90;;;;;;6109696;23;24428;-66
2021/11/15 07:28:33;;;;;;;;;;;8.90;99.90;;;;;;6115868;23;20702;-67
2021/11/15 07:30:59;;;;;;;;;;;8.90;99.90;;;;;;6141095;23;20316;-67
2021/11/15 07:33:25;;;;;;;;;;;8.90;99.90;;;;;;6115787;23;20498;-66
2021/11/15 07:35:51;;;;;;;;;;;8.90;99.90;;;;;;6116070;23;20439;-65
2021/11/15 07:38:19;;;;;;;;;;;8.90;99.90;;;;;;6114765;23;24767;-66
2021/11/15 07:40:45;;;;;;;;;;;8.90;99.90;;;;;;6113933;23;20772;-67
2021/11/15 07:43:13;;;;;;;;;;;8.90;99.90;;;;;;6115428;23;20248;-67
2021/11/15 07:45:41;;;;;;;;;;;9.00;99.90;;;;;;6117945;23;20698;-67
2021/11/15 07:48:09;;;;;;;;;;;9.00;99.90;;;;;;6119593;23;21193;-65
2021/11/15 07:50:35;;;;;;;;;;;9.00;99.90;;;;;;6118123;23;20459;-66
2021/11/15 07:53:03;;;;;;;;;;;9.00;99.90;;;;;;6115121;23;24564;-67
2021/11/15 07:55:31;;;;;;;75.30;39.60;;;8.90;99.90;;;;;;6115630;23;20688;-66
2021/11/15 07:58:01;;;;;;;71.90;38.30;;;8.90;99.90;;;;;;6113868;23;24392;-66
2021/11/15 08:00:30;;;;;;;;;;;9.00;99.90;;;;;;6114399;23;24711;-67
2021/11/15 08:02:56;;;;;;;;;;;9.10;99.90;;;;;;6114902;23;24457;-67
2021/11/15 08:05:24;;;;;;;;;;;9.00;99.90;;;;;;6113588;23;21370;-66
2021/11/15 08:08:13;;;;;;;22.55;20.40;;;9.00;99.90;;;;;;6116215;23;20661;-67
2021/11/15 08:10:48;;;;;;;38.20;30.80;;;8.90;99.90;;;;;;6111182;23;24370;-66
2021/11/15 08:16:36;;;;;;;30.60;24.60;;;8.90;99.90;;;;;;6104490;23;24711;-66
2021/11/15 08:19:04;;;;;;;;;;;9.00;99.90;;;;;;6136624;23;20754;-68
2021/11/15 08:21:31;;;;;;;;;;;9.00;99.90;;;;;;6145023;23;24432;-66
2021/11/15 08:24:18;;;;;;;50.70;33.10;;;8.90;99.90;;;;;;6147775;23;20703;-66
2021/11/15 08:26:57;;;;;;;35.40;29.30;;;9.00;99.90;;;;;;6143161;23;25043;-66
2021/11/15 08:29:33;;;;;;;33.90;29.10;;;9.00;99.90;;;;;;6141098;23;20825;-67
2021/11/15 08:32:07;;;;;;;36.10;31.00;;;9.00;99.90;;;;;;6143653;23;20703;-67
2021/11/15 08:34:36;;;;;;;35.10;29.70;;;9.00;99.90;;;;;;6147597;23;20681;-68
2021/11/15 08:37:13;;;;;;;45.80;34.00;;;9.00;99.90;;;;;;6148538;23;24388;-66
2021/11/15 08:39:41;;;;;;;34.93;27.43;;;8.80;99.90;;;;;;6148541;23;20651;-66
2021/11/15 08:42:13;;;;;;;38.35;29.15;;;8.90;99.90;;;;;;6147032;23;20716;-67
2021/11/15 08:44:54;;;;;;;;;;;8.90;99.90;;;;;;6149372;23;24374;-67
2021/11/15 08:47:21;;;;;;;34.37;28.10;;;8.90;99.90;;;;;;6148550;23;25282;-66
2021/11/15 08:49:47;;;;;;;39.73;28.63;;;8.90;99.90;;;;;;6149759;23;24364;-67
2021/11/15 08:52:12;;;;;;;;;;;9.00;99.90;;;;;;6144817;23;24373;-66
2021/11/15 08:54:47;;;;;;;40.80;29.70;;;8.90;99.90;;;;;;6146846;23;20703;-67
2021/11/15 08:57:13;;;;;;;;;;;8.90;99.90;;;;;;6145284;23;24826;-68
2021/11/15 08:59:39;;;;;;;33.85;26.35;;;9.00;99.90;;;;;;6146891;23;24476;-67
2021/11/15 09:02:05;;;;;;;40.75;29.35;;;8.80;99.90;;;;;;6148601;23;24902;-67
2021/11/15 09:04:30;;;;;;;;;;;8.80;99.90;;;;;;6148514;23;24368;-66
2021/11/15 09:06:58;;;;;;;33.30;24.60;;;8.80;99.90;;;;;;6147698;23;24397;-67
2021/11/15 09:09:28;;;;;;;44.80;33.10;;;8.80;99.90;;;;;;6148409;23;24427;-67
2021/11/15 09:11:58;;;;;;;;;;;8.90;99.90;;;;;;6150605;23;24863;-66
2021/11/15 09:14:26;;;;;;;21.60;16.93;;;8.80;99.90;;;;;;6150746;23;24412;-67
2021/11/15 09:16:56;;;;;;;38.10;28.73;;;8.90;99.90;;;;;;6150129;23;24377;-67
2021/11/15 09:19:22;;;;;;;22.75;18.45;;;8.90;99.90;;;;;;6150135;23;20718;-67
2021/11/15 09:21:48;;;;;;;32.70;26.10;;;8.90;99.90;;;;;;6148479;23;24471;-66
2021/11/15 09:24:15;;;;;;;37.15;27.75;;;9.00;99.90;;;;;;6146587;23;24447;-67
2021/11/15 09:26:42;;;;;;;19.50;17.40;;;8.90;99.90;;;;;;6150517;23;24859;-68
2021/11/15 09:29:11;;;;;;;33.40;25.90;;;9.00;99.90;;;;;;6148904;23;24472;-68
2021/11/15 09:31:44;;;;;;;33.05;26.30;;;9.00;99.90;;;;;;6145172;23;20708;-67
2021/11/15 09:34:10;;;;;;;33.70;27.80;;;9.00;99.90;;;;;;6148128;23;20677;-67
2021/11/15 09:36:38;;;;;;;;;;;9.10;99.90;;;;;;6148250;23;24440;-67
2021/11/15 09:39:06;;;;;;;;;;;9.10;99.90;;;;;;6148584;23;24368;-67
2021/11/15 09:41:33;;;;;;;22.40;17.10;;;9.00;99.90;;;;;;6147225;23;24400;-67
2021/11/15 09:44:01;;;;;;;40.50;30.60;;;9.10;99.90;;;;;;6143674;23;20743;-66
2021/11/15 09:46:31;;;;;;;37.00;28.40;;;9.20;99.90;;;;;;6149231;23;24387;-67
2021/11/15 09:49:04;;;;;;;32.60;25.10;;;9.10;99.90;;;;;;6147885;23;24710;-67
2021/11/15 09:51:35;;;;;;;36.00;28.70;;;9.00;99.90;;;;;;6147657;23;20733;-66
2021/11/15 09:54:04;;;;;;;27.40;20.10;;;8.90;99.90;;;;;;6150346;23;24484;-66
2021/11/15 09:56:29;;;;;;;;;;;8.80;99.90;;;;;;6147292;23;24652;-69
2021/11/15 09:58:57;;;;;;;;;;;8.80;99.90;;;;;;6140918;23;20693;-65
2021/11/15 10:01:41;;;;;;;;;;;8.90;99.90;;;;;;6135896;23;25065;-66
2021/11/15 10:04:11;;;;;;;;;;;8.80;99.90;;;;;;6144255;23;20632;-67
2021/11/15 10:06:37;;;;;;;31.67;25.83;;;8.90;99.90;;;;;;6149530;23;24381;-67
2021/11/15 10:09:05;;;;;;;40.40;31.40;;;8.90;99.90;;;;;;6147488;23;24707;-67
2021/11/15 10:11:57;;;;;;;;;;;8.90;99.90;;;;;;6149612;23;24434;-67
2021/11/15 10:14:25;;;;;;;35.20;28.00;;;8.90;99.90;;;;;;6146881;23;24368;-67
2021/11/15 10:17:01;;;;;;;32.95;26.45;;;9.00;99.90;;;;;;6145207;23;25362;-68
2021/11/15 10:19:31;;;;;;;34.90;29.20;;;9.10;99.90;;;;;;6148328;23;24398;-67
2021/11/15 10:22:01;;;;;;;33.70;26.90;;;9.10;99.90;;;;;;6146229;23;20693;-66
2021/11/15 10:24:36;;;;;;;39.60;28.70;;;8.70;99.90;;;;;;6150628;23;21205;-66
2021/11/15 10:27:12;;;;;;;34.95;27.60;;;8.80;99.90;;;;;;6149565;23;20979;-67
2021/11/15 10:29:43;;;;;;;29.40;23.60;;;8.80;99.90;;;;;;6149213;23;24869;-67
2021/11/15 10:32:10;;;;;;;;;;;8.70;99.90;;;;;;6145188;23;25069;-67
2021/11/15 10:34:38;;;;;;;31.80;27.60;;;8.80;99.90;;;;;;6139853;23;20788;-66
2021/11/15 10:37:04;;;;;;;30.25;26.40;;;8.90;99.90;;;;;;6139843;23;21237;-65
2021/11/15 10:39:53;;;;;;;35.10;27.50;;;8.90;99.90;;;;;;6145740;23;20726;-67
2021/11/15 10:42:29;;;;;;;38.40;29.10;;;9.00;99.90;;;;;;6145114;23;20666;-65
2021/11/15 10:44:58;;;;;;;28.70;25.50;;;8.90;99.90;;;;;;6143246;23;20743;-67
2021/11/15 10:47:37;;;;;;;24.70;20.15;;;8.80;99.90;;;;;;6147149;23;20683;-66
2021/11/15 10:50:06;;;;;;;35.70;30.15;;;9.00;99.90;;;;;;6141848;23;20814;-66
2021/11/15 10:52:37;;;;;;;;;;;8.90;99.90;;;;;;6146384;23;24377;-67
2021/11/15 10:55:07;;;;;;;;;;;9.00;99.90;;;;;;6149223;23;20698;-66
2021/11/15 10:57:48;;;;;;;34.70;27.60;;;8.90;99.90;;;;;;6150275;23;21016;-67
2021/11/15 11:00:39;;;;;;;36.40;32.40;;;9.00;99.90;;;;;;6145860;23;20908;-65
2021/11/15 11:03:14;;;;;;;32.30;28.80;;;9.00;99.90;;;;;;6144602;23;20764;-67
2021/11/15 11:05:42;;;;;;;;;;;9.10;99.90;;;;;;6148297;23;24511;-67
2021/11/15 11:08:13;;;;;;;35.70;30.40;;;9.10;99.90;;;;;;6148341;23;20802;-67
2021/11/15 11:10:47;;;;;;;35.00;30.30;;;9.10;99.90;;;;;;6147574;23;20611;-68
2021/11/15 11:13:21;;;;;;;35.57;30.00;;;9.10;99.90;;;;;;6147066;23;20721;-66
2021/11/15 11:15:53;;;;;;;50.00;37.90;;;9.00;99.90;;;;;;6149538;23;20895;-66
2021/11/15 11:18:45;;;;;;;29.50;23.00;;;9.10;99.90;;;;;;6149618;23;24431;-66
2021/11/15 11:26:33;;;;;;;38.60;34.40;;;9.00;99.90;;;;;;6156855;23;20722;-68
2021/11/15 11:29:12;;;;;;;27.50;24.37;;;9.00;99.90;;;;;;6146491;23;24401;-68
2021/11/15 11:31:42;;;;;;;35.70;31.35;;;8.90;99.90;;;;;;6144866;23;20762;-68
2021/11/15 11:34:11;;;;;;;38.95;32.75;;;9.00;99.90;;;;;;6148638;23;20562;-66
2021/11/15 11:36:38;;;;;;;28.90;24.00;;;9.00;99.90;;;;;;6147481;23;20721;-67
2021/11/15 11:39:09;;;;;;;41.00;30.70;;;9.00;99.90;;;;;;6148119;23;20702;-67
2021/11/15 11:41:41;;;;;;;16.35;14.60;;;9.10;99.90;;;;;;6149869;23;25097;-67
2021/11/15 11:44:08;;;;;;;30.80;24.70;;;9.10;99.90;;;;;;6147635;23;24376;-66
2021/11/15 11:46:36;;;;;;;35.40;30.90;;;9.10;99.90;;;;;;6144193;23;20758;-67
2021/11/15 11:49:11;;;;;;;34.40;29.70;;;9.10;99.90;;;;;;6147842;23;20706;-66
2021/11/15 11:51:49;;;;;;;32.55;28.20;;;9.10;99.90;;;;;;6140844;23;20675;-66
2021/11/15 11:54:20;;;;;;;34.75;29.40;;;9.10;99.90;;;;;;6149467;23;20653;-68
2021/11/15 11:57:18;;;;;;;32.92;29.42;;;9.10;99.90;;;;;;6146017;23;20629;-67
2021/11/15 11:59:44;;;;;;;;;;;9.10;99.90;;;;;;6137059;23;20625;-67
2021/11/15 12:02:17;;;;;;;30.60;27.30;;;9.10;99.90;;;;;;6138505;23;20659;-68
2021/11/15 12:04:49;;;;;;;;;;;9.00;99.90;;;;;;6139437;23;20721;-67
2021/11/15 12:07:36;;;;;;;34.30;29.80;;;9.00;99.90;;;;;;6136538;23;20734;-68
2021/11/15 12:10:35;;;;;;;40.50;32.90;;;9.00;99.90;;;;;;6146567;23;20652;-68
2021/11/15 12:13:05;;;;;;;26.70;23.80;;;9.00;99.90;;;;;;6147558;23;20708;-67
2021/11/15 12:16:00;;;;;;;33.20;29.70;;;9.00;99.90;;;;;;6141353;23;20657;-67
2021/11/15 12:18:28;;;;;;;;;;;9.10;99.90;;;;;;6142779;23;20664;-66
2021/11/15 12:21:05;;;;;;;30.50;27.40;;;9.00;99.90;;;;;;6142357;23;21057;-66
2021/11/15 12:23:34;;;;;;;;;;;9.00;99.90;;;;;;6135488;23;20799;-69
2021/11/15 12:26:06;;;;;;;;;;;9.10;99.90;;;;;;6138733;23;21058;-66
2021/11/15 12:28:33;;;;;;;34.20;29.15;;;9.00;99.90;;;;;;6142629;23;21142;-67
2021/11/15 12:31:04;;;;;;;33.30;28.10;;;9.00;99.90;;;;;;6136721;23;20700;-67
2021/11/15 12:33:36;;;;;;;;;;;9.00;99.90;;;;;;6141295;23;20671;-68
2021/11/15 12:36:17;;;;;;;30.15;26.95;;;9.00;99.90;;;;;;6143433;23;25073;-65
2021/11/15 12:38:53;;;;;;;29.50;26.80;;;9.00;99.90;;;;;;6145336;23;20673;-66
2021/11/15 12:41:23;;;;;;;;;;;9.00;99.90;;;;;;6146083;23;20367;-67
2021/11/15 12:43:49;;;;;;;;;;;9.00;99.90;;;;;;6144611;23;20715;-66
2021/11/15 12:46:17;;;;;;;;;;;9.10;99.90;;;;;;6138873;23;21184;-67
2021/11/15 12:48:45;;;;;;;31.30;28.00;;;9.10;99.90;;;;;;6136762;23;21235;-66
2021/11/15 12:51:23;;;;;;;37.80;30.40;;;9.10;99.90;;;;;;6146231;23;20606;-66
2021/11/15 12:53:52;;;;;;;32.55;28.70;;;9.10;99.90;;;;;;6140615;23;20747;-65
2021/11/15 12:56:26;;;;;;;31.10;24.60;;;9.10;99.90;;;;;;6147801;23;24407;-66
2021/11/15 12:58:54;;;;;;;31.00;25.85;;;9.10;99.90;;;;;;6148226;23;24415;-67
2021/11/15 13:01:25;;;;;;;34.50;29.90;;;9.00;99.90;;;;;;6145596;23;24448;-65
2021/11/15 13:03:54;;;;;;;32.27;28.87;;;9.00;99.90;;;;;;6144684;23;20674;-67
2021/11/15 13:06:25;;;;;;;30.70;27.50;;;9.00;99.90;;;;;;6139974;23;20779;-68
2021/11/15 13:08:50;;;;;;;30.65;27.35;;;9.10;99.90;;;;;;6144701;23;20633;-67
2021/11/15 13:11:17;;;;;;;32.95;28.80;;;9.00;99.90;;;;;;6146222;23;20661;-67
2021/11/15 13:13:44;;;;;;;36.07;25.80;;;9.00;99.90;;;;;;6149816;23;20780;-66
2021/11/15 13:16:13;;;;;;;37.00;29.80;;;8.90;99.90;;;;;;6148081;23;24355;-68
2021/11/15 13:18:41;;;;;;;31.15;27.85;;;9.00;99.90;;;;;;6145678;23;20698;-67
2021/11/15 13:21:15;;;;;;;35.00;28.40;;;8.90;99.90;;;;;;6147750;23;20751;-66
2021/11/15 13:23:42;;;;;;;33.10;29.60;;;8.70;99.90;;;;;;6145905;23;20667;-67
2021/11/15 13:26:08;;;;;;;37.70;30.50;;;8.80;99.90;;;;;;6145334;23;21203;-67
2021/11/15 13:28:35;;;;;;;31.55;27.90;;;8.80;99.90;;;;;;6146010;23;20707;-67
2021/11/15 13:31:01;;;;;;;34.10;29.10;;;8.90;99.90;;;;;;6144435;23;20672;-66
2021/11/15 13:33:36;;;;;;;37.10;30.65;;;8.90;99.90;;;;;;6144714;23;20655;-66
2021/11/15 13:36:01;;;;;;;31.30;27.90;;;8.80;99.90;;;;;;6142789;23;20699;-67
2021/11/15 13:38:29;;;;;;;34.10;29.53;;;8.90;99.90;;;;;;6145364;23;21181;-65
2021/11/15 13:40:55;;;;;;;32.50;28.65;;;8.90;99.90;;;;;;6145080;23;20628;-65
2021/11/15 13:43:25;;;;;;;29.50;26.60;;;8.80;99.90;;;;;;6135279;23;20705;-68
2021/11/15 13:45:54;;;;;;;31.85;27.30;;;8.90;99.90;;;;;;6143544;23;20648;-67
2021/11/15 13:48:21;;;;;;;35.35;30.35;;;8.90;99.90;;;;;;6148566;23;20694;-67
2021/11/15 13:50:51;;;;;;;34.30;28.90;;;9.00;99.90;;;;;;6144962;23;20715;-66
2021/11/15 13:53:17;;;;;;;33.50;27.70;;;9.00;99.90;;;;;;6145316;23;20748;-68
2021/11/15 13:55:44;;;;;;;;;;;9.00;99.90;;;;;;6141364;23;25082;-66
2021/11/15 13:58:09;;;;;;;;;;;9.00;99.90;;;;;;6136903;23;20701;-66
2021/11/15 14:00:37;;;;;;;;;;;8.90;99.90;;;;;;6142034;23;20634;-67
2021/11/15 14:03:03;;;;;;;32.00;28.60;;;9.00;99.90;;;;;;6138995;23;21272;-69
2021/11/15 14:05:32;;;;;;;34.00;30.40;;;9.00;99.90;;;;;;6138227;23;20801;-67
2021/11/15 14:08:05;;;;;;;;;;;9.00;99.90;;;;;;6142968;23;20742;-66
2021/11/15 14:10:31;;;;;;;;;;;9.10;99.90;;;;;;6140780;23;20652;-67
2021/11/15 14:12:57;;;;;;;;;;;9.10;99.90;;;;;;6145593;23;19908;-67